Time;durP1;ratioP1;P1;durP2;ratioP2;P2;SDS_P1;SDS_P2;PMS_P1;PMS_P2;Temp;Humidity;BMP_temperature;BMP_pressure;BME280_temperature;BME280_humidity;BME280_pressure;Samples;Min_cycle;Max_cycle;Signal;HPM_P1;HPM_P2
2021/09/20 07:12:47;;;;;;;10.30;6.50;;;;;;;12.20;100.00;99145.97;5110162;27;20390;-83
2021/09/20 07:15:17;;;;;;;9.80;6.47;;;;;;;12.26;100.00;99138.09;5107830;28;20052;-83
2021/09/20 07:17:44;;;;;;;12.48;6.30;;;;;;;12.28;100.00;99123.19;5109924;28;20047;-83
2021/09/20 07:20:13;;;;;;;10.23;6.93;;;;;;;12.43;100.00;99135.91;5110128;28;20059;-83
2021/09/20 07:22:43;;;;;;;11.10;6.93;;;;;;;12.60;100.00;99133.72;5109944;28;20044;-84
2021/09/20 07:25:12;;;;;;;9.65;6.80;;;;;;;12.83;100.00;99147.94;5109221;28;20047;-84
2021/09/20 07:27:41;;;;;;;9.23;6.50;;;;;;;12.94;100.00;99141.06;5109955;28;20056;-84
2021/09/20 07:30:16;;;;;;;8.17;5.93;;;;;;;12.77;100.00;99132.38;5107329;28;20050;-84
2021/09/20 07:32:43;;;;;;;8.80;5.93;;;;;;;12.91;100.00;99130.56;5109894;27;20128;-84
2021/09/20 07:35:13;;;;;;;7.15;4.95;;;;;;;12.99;99.50;99126.84;5109432;28;20047;-84
2021/09/20 07:37:40;;;;;;;8.17;5.80;;;;;;;13.02;99.34;99142.81;5110073;27;20193;-83
2021/09/20 07:40:13;;;;;;;7.43;5.60;;;;;;;13.19;99.72;99141.44;5109634;27;20101;-84
2021/09/20 07:42:41;;;;;;;9.23;5.20;;;;;;;13.20;98.25;99137.66;5109712;28;20044;-83
2021/09/20 07:45:12;;;;;;;9.25;5.53;;;;;;;13.51;95.49;99155.47;5109071;28;20480;-84
2021/09/20 07:47:39;;;;;;;10.02;6.28;;;;;;;13.61;95.47;99146.91;5096368;27;20044;-81
2021/09/20 07:50:11;;;;;;;9.40;5.82;;;;;;;13.71;94.53;99158.25;5109549;28;20044;-83
2021/09/20 07:52:39;;;;;;;6.50;5.20;;;;;;;13.66;93.67;99146.28;5109370;28;20039;-84
2021/09/20 07:55:07;;;;;;;6.47;5.40;;;;;;;13.63;94.95;99144.78;5108984;28;20127;-84
2021/09/20 07:57:34;;;;;;;7.95;5.65;;;;;;;13.69;94.47;99154.88;5109719;28;20074;-84
2021/09/20 08:00:02;;;;;;;9.70;5.07;;;;;;;13.76;95.43;99153.03;5109115;28;20039;-84
2021/09/20 08:02:30;;;;;;;7.13;4.93;;;;;;;13.82;94.58;99156.84;5109172;28;20062;-84
2021/09/20 08:04:57;;;;;;;7.45;5.00;;;;;;;14.04;93.59;99173.06;5100297;28;20465;-84
2021/09/20 08:07:24;;;;;;;8.60;5.18;;;;;;;13.97;92.77;99165.69;5109037;28;20050;-82
2021/09/20 08:09:51;;;;;;;7.57;5.13;;;;;;;13.89;92.82;99170.50;5108311;28;20083;-82
2021/09/20 08:12:18;;;;;;;8.25;5.32;;;;;;;13.82;93.67;99154.09;5088436;28;20059;-83
2021/09/20 08:14:45;;;;;;;9.18;6.05;;;;;;;13.86;93.20;99151.78;5088230;28;20045;-82
2021/09/20 08:17:13;;;;;;;10.48;5.78;;;;;;;14.19;92.32;99172.88;5088742;28;20063;-82
2021/09/20 08:19:41;;;;;;;8.35;5.85;;;;;;;14.19;92.40;99170.13;5088301;28;20047;-82
2021/09/20 08:22:09;;;;;;;9.18;6.03;;;;;;;14.02;92.49;99173.25;5085235;28;20502;-82
2021/09/20 08:24:36;;;;;;;10.55;5.93;;;;;;;14.00;92.37;99164.44;5074571;28;20049;-83
2021/09/20 08:27:05;;;;;;;8.63;6.45;;;;;;;14.10;92.28;99166.75;5074781;28;20048;-82
2021/09/20 08:29:32;;;;;;;9.38;6.40;;;;;;;14.18;91.61;99172.00;5074848;28;20106;-82
2021/09/20 08:32:01;;;;;;;6.60;5.72;;;;;;;14.12;91.88;99183.78;5074751;28;20046;-82
2021/09/20 08:34:29;;;;;;;10.93;6.72;;;;;;;13.92;91.70;99178.28;5074540;28;20048;-82
2021/09/20 08:37:00;;;;;;;9.32;6.18;;;;;;;14.05;91.81;99185.69;5074172;28;20051;-82
2021/09/20 08:39:27;;;;;;;13.05;6.85;;;;;;;14.20;91.31;99169.09;5054552;28;20049;-82
2021/09/20 08:41:55;;;;;;;9.82;6.65;;;;;;;14.48;90.00;99191.63;5054687;28;20056;-82
2021/09/20 08:44:23;;;;;;;11.48;6.68;;;;;;;14.41;90.22;99192.69;5064167;28;20414;-82
2021/09/20 08:46:53;;;;;;;9.63;6.53;;;;;;;14.40;89.79;99185.53;5074489;28;20048;-82
2021/09/20 08:49:21;;;;;;;10.27;6.00;;;;;;;14.49;89.95;99193.28;5074433;28;20059;-82
2021/09/20 08:51:50;;;;;;;9.30;6.07;;;;;;;14.53;89.64;99201.94;5074135;28;20048;-82
2021/09/20 08:54:19;;;;;;;10.02;5.97;;;;;;;14.71;89.15;99198.59;5073840;28;20420;-83
2021/09/20 08:56:46;;;;;;;14.50;6.30;;;;;;;14.85;88.72;99202.16;5074337;28;20407;-83
2021/09/20 08:59:13;;;;;;;7.50;5.70;;;;;;;14.92;87.08;99208.47;5074037;28;20135;-83
2021/09/20 09:01:44;;;;;;;12.02;6.78;;;;;;;15.03;87.00;99213.31;5073884;28;20083;-82
2021/09/20 09:04:24;;;;;;;;;;;;;;;15.06;86.62;99217.50;5074506;28;20052;-82
2021/09/20 09:06:56;;;;;;;9.27;5.50;;;;;;;14.96;86.53;99206.16;5074098;28;20248;-82
2021/09/20 09:09:33;;;;;;;10.75;6.45;;;;;;;14.86;87.72;99196.47;5074070;28;20576;-82
2021/09/20 09:12:13;;;;;;;8.68;5.78;;;;;;;15.08;86.58;99211.81;5053761;28;20385;-82
2021/09/20 09:14:44;;;;;;;;;;;;;;;15.12;86.34;99218.56;5053950;28;20473;-82
2021/09/20 09:17:15;;;;;;;11.18;6.10;;;;;;;15.13;85.84;99215.63;5054092;28;19927;-82
2021/09/20 09:19:51;;;;;;;9.30;6.45;;;;;;;15.22;85.82;99208.03;5072354;28;20066;-82
2021/09/20 09:22:18;;;;;;;13.23;6.72;;;;;;;15.30;85.28;99199.56;5094108;28;20044;-82
2021/09/20 09:24:59;;;;;;;11.73;6.38;;;;;;;15.43;85.07;99215.13;5086414;28;20051;-83
2021/09/20 09:27:26;;;;;;;9.48;6.60;;;;;;;15.37;85.23;99215.97;5073673;28;20059;-83
2021/09/20 09:30:02;;;;;;;8.25;5.82;;;;;;;15.42;85.68;99226.31;5073420;28;20056;-82
2021/09/20 09:32:29;;;;;;;7.65;5.95;;;;;;;15.57;86.08;99233.19;5073448;28;20048;-82
2021/09/20 09:34:59;;;;;;;9.27;6.60;;;;;;;15.73;84.13;99218.19;5072410;28;20045;-82
2021/09/20 09:37:26;;;;;;;8.52;6.40;;;;;;;15.76;83.95;99208.66;5073012;28;20113;-82
2021/09/20 09:40:06;;;;;;;10.07;7.65;;;;;;;15.89;83.44;99227.00;5073369;28;20049;-82
2021/09/20 09:42:33;;;;;;;7.70;6.28;;;;;;;15.67;83.41;99210.81;5073252;28;20265;-83
2021/09/20 09:45:16;;;;;;;10.43;7.03;;;;;;;15.71;83.42;99217.53;5072919;28;20504;-83
2021/09/20 09:47:42;;;;;;;11.70;7.75;;;;;;;15.77;82.24;99215.84;5073304;28;20052;-82
2021/09/20 09:50:18;;;;;;;9.70;7.03;;;;;;;15.86;82.48;99228.25;5073294;28;20048;-83
2021/09/20 09:52:46;;;;;;;12.05;7.82;;;;;;;15.88;81.92;99212.44;5072344;28;20044;-83
2021/09/20 09:55:15;;;;;;;11.02;6.78;;;;;;;16.01;82.52;99216.19;5072540;28;20052;-82
2021/09/20 09:57:43;;;;;;;9.73;7.28;;;;;;;16.11;81.23;99208.31;5073148;28;20045;-83
2021/09/20 10:00:13;;;;;;;9.07;6.80;;;;;;;16.21;81.25;99221.53;5072744;28;20453;-82
2021/09/20 10:02:41;;;;;;;10.52;6.88;;;;;;;16.31;81.02;99212.84;5073211;28;20052;-82
2021/09/20 10:05:11;;;;;;;10.88;6.28;;;;;;;16.31;79.99;99201.88;5072706;28;20491;-83
2021/09/20 10:07:39;;;;;;;10.45;7.30;;;;;;;16.22;80.41;99213.09;5073088;28;20052;-82
2021/09/20 10:10:09;;;;;;;11.50;7.25;;;;;;;16.28;80.46;99217.69;5070604;28;20499;-83
2021/09/20 10:12:41;;;;;;;8.10;6.47;;;;;;;16.34;80.81;99226.13;5072436;28;20131;-82
2021/09/20 10:15:10;;;;;;;10.27;7.18;;;;;;;16.42;80.25;99220.34;5072271;28;20491;-82
2021/09/20 10:17:38;;;;;;;8.75;6.65;;;;;;;16.25;80.29;99204.41;5072338;28;20095;-82
2021/09/20 10:20:08;;;;;;;10.75;7.10;;;;;;;16.37;79.25;99209.22;5082684;28;20060;-82
2021/09/20 10:22:34;;;;;;;;;;;;;;;16.34;80.35;99223.38;5093733;28;20608;-82
2021/09/20 10:25:04;;;;;;;9.38;6.93;;;;;;;16.38;80.23;99219.09;5092343;28;19920;-82
2021/09/20 10:27:31;;;;;;;12.50;6.70;;;;;;;16.21;80.24;99216.06;5091556;28;20051;-83
2021/09/20 10:30:05;;;;;;;9.38;6.40;;;;;;;16.49;80.17;99225.81;5071313;28;20048;-83
2021/09/20 10:32:35;;;;;;;14.48;7.95;;;;;;;16.35;79.06;99206.69;5072365;28;20131;-82
2021/09/20 10:35:28;;;;;;;9.68;7.45;;;;;;;16.24;79.85;99226.59;5071313;28;20059;-83
2021/09/20 10:37:59;;;;;;;10.57;7.47;;;;;;;16.08;80.76;99206.84;5072349;28;20044;-82
2021/09/20 10:40:26;;;;;;;11.07;7.65;;;;;;;16.30;79.85;99213.91;5072241;28;20543;-82
2021/09/20 10:43:00;;;;;;;12.27;7.50;;;;;;;16.43;79.43;99220.13;5072384;28;20059;-82
2021/09/20 10:45:42;;;;;;;9.63;7.22;;;;;;;16.56;79.17;99221.94;5071505;28;20080;-82
2021/09/20 10:48:37;;;;;;;10.25;7.78;;;;;;;16.33;78.88;99214.28;5052382;28;20091;-82
2021/09/20 10:51:26;;;;;;;12.63;7.93;;;;;;;16.42;79.36;99218.47;5058199;28;20134;-83
2021/09/20 10:54:15;;;;;;;14.43;7.75;;;;;;;16.67;78.55;99222.28;5072312;28;20060;-83
2021/09/20 10:56:43;;;;;;;11.63;7.85;;;;;;;16.70;78.80;99205.38;5072456;28;20067;-83
2021/09/20 10:59:24;;;;;;;12.10;6.80;;;;;;;16.79;78.11;99229.56;5071971;28;20479;-83
2021/09/20 11:02:11;;;;;;;10.25;7.25;;;;;;;16.80;77.93;99214.78;5070940;28;20048;-82
2021/09/20 11:04:41;;;;;;;12.80;7.22;;;;;;;17.07;77.14;99220.06;5072104;28;20060;-83
2021/09/20 11:07:15;;;;;;;14.23;8.55;;;;;;;17.03;76.44;99216.09;5072072;28;20052;-82
2021/09/20 11:10:12;;;;;;;10.23;7.82;;;;;;;16.76;78.13;99227.28;5072418;28;20455;-82
2021/09/20 11:13:04;;;;;;;12.45;7.97;;;;;;;16.87;77.77;99216.66;5071800;28;20139;-83
2021/09/20 11:15:39;;;;;;;11.07;8.32;;;;;;;17.06;77.31;99212.88;5071827;28;20165;-83
2021/09/20 11:18:08;;;;;;;13.07;8.45;;;;;;;17.25;76.24;99202.78;5072032;28;20299;-82
2021/09/20 11:20:38;;;;;;;12.05;8.18;;;;;;;17.33;75.02;99218.13;5086092;28;20047;-83
2021/09/20 11:23:25;;;;;;;11.30;8.27;;;;;;;17.34;75.19;99233.50;5092051;28;20046;-82
2021/09/20 11:26:10;;;;;;;12.13;8.20;;;;;;;16.99;76.78;99210.19;5077529;28;20063;-82
2021/09/20 11:28:45;;;;;;;10.40;7.70;;;;;;;17.00;76.36;99216.53;5071891;28;20070;-82
2021/09/20 11:31:12;;;;;;;11.90;7.85;;;;;;;16.97;77.28;99211.50;5071793;28;20045;-83
2021/09/20 11:33:42;;;;;;;11.27;8.77;;;;;;;17.10;77.43;99227.00;5071901;28;20049;-83
2021/09/20 11:36:23;;;;;;;11.63;7.93;;;;;;;17.05;76.91;99213.94;5071214;28;20477;-83
2021/09/20 11:38:51;;;;;;;12.07;8.80;;;;;;;16.85;77.83;99232.50;5071979;28;20048;-83
2021/09/20 11:41:27;;;;;;;11.40;8.38;;;;;;;16.73;79.44;99224.97;5072150;28;20052;-83
2021/09/20 11:43:54;;;;;;;10.35;7.32;;;;;;;16.68;79.90;99222.06;5071198;28;20041;-83
2021/09/20 11:46:23;;;;;;;11.10;7.05;;;;;;;16.65;79.98;99225.25;5071468;28;20403;-82
2021/09/20 11:49:01;;;;;;;8.77;7.03;;;;;;;16.50;81.41;99227.47;5071771;28;20049;-82
2021/09/20 11:51:29;;;;;;;16.60;6.68;;;;;;;16.59;81.30;99242.59;5071704;28;20053;-83
2021/09/20 11:53:55;;;;;;;9.00;6.35;;;;;;;16.50;79.96;99233.81;5071211;28;20045;-82
2021/09/20 11:56:27;;;;;;;14.43;6.28;;;;;;;16.66;79.60;99235.16;5071945;28;20506;-83
2021/09/20 11:58:54;;;;;;;10.50;6.28;;;;;;;16.69;79.82;99251.19;5073913;28;20453;-82
2021/09/20 12:01:23;;;;;;;8.48;6.10;;;;;;;16.83;78.53;99234.59;5075252;28;20044;-82
2021/09/20 12:03:53;;;;;;;12.73;6.28;;;;;;;16.99;77.16;99234.91;5075776;28;20048;-83
2021/09/20 12:06:28;;;;;;;8.75;5.47;;;;;;;17.09;76.11;99244.56;5074898;28;20222;-83
2021/09/20 12:09:03;;;;;;;6.78;5.65;;;;;;;17.06;76.34;99237.59;5075270;28;20045;-83
2021/09/20 12:11:30;;;;;;;6.70;5.45;;;;;;;17.36;74.66;99247.88;5074983;28;20171;-83
2021/09/20 12:14:01;;;;;;;7.85;5.45;;;;;;;17.45;75.43;99251.19;5075061;28;20047;-83
2021/09/20 12:16:28;;;;;;;7.20;5.57;;;;;;;17.61;76.59;99238.72;5074624;28;20064;-83
2021/09/20 12:18:58;;;;;;;11.45;5.70;;;;;;;17.68;75.06;99234.00;5074239;28;20040;-82
2021/09/20 12:21:29;;;;;;;5.70;4.97;;;;;;;17.96;74.62;99233.47;5079174;28;20102;-83
2021/09/20 12:24:01;;;;;;;7.00;5.40;;;;;;;18.03;73.48;99238.88;5075072;28;20060;-83
2021/09/20 12:26:28;;;;;;;8.38;5.95;;;;;;;17.95;72.72;99242.78;5074757;28;20052;-83
2021/09/20 12:28:57;;;;;;;8.82;5.80;;;;;;;17.99;71.64;99237.66;5074600;28;20053;-83
2021/09/20 12:31:39;;;;;;;8.20;5.78;;;;;;;17.96;73.48;99244.47;5074511;28;20437;-82
2021/09/20 12:34:16;;;;;;;6.07;5.32;;;;;;;18.08;72.77;99243.69;5074829;28;20491;-82
2021/09/20 12:36:47;;;;;;;7.00;5.20;;;;;;;18.00;72.74;99242.09;5073708;28;20078;-83
2021/09/20 12:39:22;;;;;;;7.90;5.47;;;;;;;18.07;71.87;99231.03;5074703;28;20056;-83
2021/09/20 12:41:56;;;;;;;6.22;5.05;;;;;;;18.12;71.93;99239.41;5074748;28;20048;-83
2021/09/20 12:44:30;;;;;;;6.30;5.53;;;;;;;18.12;72.34;99236.66;5074025;28;20404;-83
2021/09/20 12:47:02;;;;;;;7.05;5.20;;;;;;;18.22;70.56;99253.44;5054447;28;20049;-83
2021/09/20 12:49:30;;;;;;;6.43;5.30;;;;;;;18.27;71.61;99242.56;5054459;28;20107;-83
2021/09/20 12:51:58;;;;;;;7.40;5.45;;;;;;;18.30;71.38;99252.28;5054435;28;20060;-84
2021/09/20 12:54:27;;;;;;;9.57;5.75;;;;;;;18.11;73.46;99256.97;5054308;28;20166;-83
2021/09/20 12:56:56;;;;;;;8.57;5.60;;;;;;;18.16;71.20;99244.19;5071587;28;20472;-83
2021/09/20 12:59:29;;;;;;;9.40;4.95;;;;;;;18.08;70.86;99241.78;5074259;28;20419;-83
2021/09/20 13:02:00;;;;;;;8.65;6.13;;;;;;;18.12;72.67;99242.97;5073429;28;20135;-82
2021/09/20 13:04:34;;;;;;;7.10;5.15;;;;;;;18.29;71.91;99247.84;5073224;28;20095;-82
2021/09/20 13:07:12;;;;;;;7.97;5.68;;;;;;;18.20;71.66;99259.19;5074156;28;20059;-82
2021/09/20 13:09:40;;;;;;;8.70;5.13;;;;;;;18.20;71.75;99247.31;5073731;28;20048;-82
2021/09/20 13:12:10;;;;;;;6.78;4.75;;;;;;;18.16;70.97;99241.44;5073374;28;20075;-82
2021/09/20 13:14:49;;;;;;;6.18;5.05;;;;;;;18.09;71.57;99250.88;5072867;28;20052;-82
2021/09/20 13:17:16;;;;;;;8.57;5.57;;;;;;;18.04;74.78;99248.81;5071358;28;20283;-82
2021/09/20 13:20:07;;;;;;;6.88;4.60;;;;;;;18.13;72.54;99243.84;5073824;28;20057;-82
2021/09/20 13:22:47;;;;;;;6.82;5.13;;;;;;;18.38;72.96;99246.44;5073617;28;20503;-83
2021/09/20 13:25:22;;;;;;;7.90;5.80;;;;;;;18.48;71.92;99238.44;5072978;28;20557;-82
2021/09/20 13:27:49;;;;;;;5.97;4.57;;;;;;;18.04;71.35;99226.81;5062199;28;20098;-82
2021/09/20 13:30:21;;;;;;;5.75;4.68;;;;;;;18.42;73.08;99238.56;5091380;28;20040;-82
2021/09/20 13:32:50;;;;;;;7.57;5.00;;;;;;;18.32;71.75;99228.97;5092045;28;20510;-82
2021/09/20 13:35:23;;;;;;;8.52;5.15;;;;;;;18.26;71.49;99235.41;5051793;28;20126;-82
2021/09/20 13:37:51;;;;;;;6.80;5.20;;;;;;;18.17;71.95;99223.03;5064586;28;20056;-82
2021/09/20 13:40:18;;;;;;;7.80;4.80;;;;;;;18.29;69.69;99237.69;5072870;28;20049;-82
2021/09/20 13:42:45;;;;;;;7.25;4.88;;;;;;;18.19;71.56;99238.22;5072245;28;20052;-82
2021/09/20 13:45:12;;;;;;;9.25;5.15;;;;;;;18.10;70.73;99238.81;5071485;28;20461;-82
2021/09/20 13:47:42;;;;;;;5.82;4.15;;;;;;;17.98;72.08;99230.50;5072021;28;20052;-82
2021/09/20 13:50:10;;;;;;;7.13;5.63;;;;;;;18.13;71.95;99224.59;5073071;28;20052;-81
2021/09/20 13:52:39;;;;;;;5.93;4.70;;;;;;;18.03;70.08;99238.88;5072740;28;20052;-82
2021/09/20 13:55:07;;;;;;;6.25;4.20;;;;;;;17.72;70.73;99253.63;5071629;28;20517;-82
2021/09/20 13:57:37;;;;;;;6.40;4.72;;;;;;;17.85;70.97;99237.81;5072421;28;20052;-82
2021/09/20 14:00:05;;;;;;;5.65;4.82;;;;;;;18.09;70.59;99239.88;5072595;28;20090;-81
2021/09/20 14:02:32;;;;;;;7.50;5.18;;;;;;;18.07;70.10;99242.84;5072275;28;20048;-81
2021/09/20 14:05:00;;;;;;;8.50;5.80;;;;;;;17.73;71.67;99247.06;5072457;28;20053;-81
2021/09/20 14:07:27;;;;;;;10.13;4.82;;;;;;;17.78;71.38;99228.81;5072541;28;20078;-82
2021/09/20 14:09:55;;;;;;;10.25;5.43;;;;;;;17.81;73.10;99253.09;5072094;28;20117;-81
2021/09/20 14:12:24;;;;;;;6.22;4.50;;;;;;;17.81;71.64;99249.47;5071169;28;20040;-81
2021/09/20 14:14:53;;;;;;;5.55;4.15;;;;;;;17.90;71.61;99263.78;5072200;28;20049;-81
2021/09/20 14:17:20;;;;;;;9.40;5.20;;;;;;;17.75;71.32;99258.66;5072093;28;20503;-81
2021/09/20 14:19:49;;;;;;;4.63;4.07;;;;;;;17.54;71.57;99262.69;5072117;28;20051;-82
2021/09/20 14:22:17;;;;;;;7.55;5.20;;;;;;;17.57;72.68;99260.34;5071699;28;20392;-82
2021/09/20 14:24:44;;;;;;;4.85;3.67;;;;;;;17.65;72.59;99257.28;5071677;28;20059;-82
2021/09/20 14:27:12;;;;;;;7.15;4.82;;;;;;;17.63;72.10;99267.69;5071637;28;20055;-81
2021/09/20 14:29:39;;;;;;;6.72;4.13;;;;;;;17.66;72.48;99244.41;5072443;28;20049;-81
2021/09/20 14:32:06;;;;;;;6.45;4.38;;;;;;;17.75;72.05;99253.16;5071736;28;20098;-81
2021/09/20 14:34:33;;;;;;;8.40;4.72;;;;;;;17.82;72.44;99246.50;5071926;28;20414;-82
2021/09/20 14:37:00;;;;;;;8.93;5.68;;;;;;;17.66;72.06;99244.41;5071151;28;20052;-81
2021/09/20 14:39:30;;;;;;;7.68;5.70;;;;;;;17.82;71.09;99253.91;5071387;28;20056;-82
2021/09/20 14:42:00;;;;;;;;;;;;;;;17.69;72.56;99261.25;5066724;28;20056;-81
2021/09/20 14:44:28;;;;;;;8.50;6.75;;;;;;;17.67;72.01;99249.66;5071735;28;19932;-81
2021/09/20 14:47:13;;;;;;;9.25;6.80;;;;;;;17.67;72.86;99254.31;5071358;28;20052;-81
2021/09/20 14:49:47;;;;;;;11.20;7.13;;;;;;;17.43;73.51;99250.56;5071747;28;20044;-82
2021/09/20 14:52:14;;;;;;;10.40;7.03;;;;;;;17.14;74.92;99252.94;5072352;28;20523;-82
2021/09/20 14:54:41;;;;;;;10.38;6.35;;;;;;;17.11;75.70;99267.97;5070362;28;20048;-81
2021/09/20 14:57:07;;;;;;;9.48;6.63;;;;;;;17.24;75.06;99261.53;5070864;28;20064;-81
2021/09/20 14:59:36;;;;;;;9.45;6.93;;;;;;;17.13;74.62;99251.25;5071644;28;20052;-81
2021/09/20 15:02:03;;;;;;;11.38;6.85;;;;;;;17.06;74.41;99262.31;5071490;28;20053;-82
2021/09/20 15:04:34;;;;;;;11.32;7.18;;;;;;;16.90;75.01;99257.41;5071664;28;20484;-82
2021/09/20 15:07:06;;;;;;;10.95;7.50;;;;;;;17.09;74.68;99272.88;5071204;28;20055;-82
2021/09/20 15:09:35;;;;;;;11.95;8.07;;;;;;;16.71;76.04;99282.00;5071165;28;20056;-81
2021/09/20 15:12:02;;;;;;;11.98;7.68;;;;;;;16.73;75.88;99266.16;5070780;28;20102;-81
2021/09/20 15:14:29;;;;;;;10.07;7.25;;;;;;;16.83;76.11;99279.41;5071135;28;20055;-81
2021/09/20 15:16:59;;;;;;;12.75;7.47;;;;;;;16.81;75.03;99265.84;5070767;28;20052;-81
2021/09/20 15:19:27;;;;;;;9.10;7.15;;;;;;;16.89;75.05;99281.28;5071528;28;20156;-81
2021/09/20 15:21:54;;;;;;;10.85;7.45;;;;;;;16.66;75.75;99268.09;5071570;28;20084;-82
2021/09/20 15:24:23;;;;;;;11.80;7.32;;;;;;;16.61;75.92;99270.69;5071037;28;20055;-82
2021/09/20 15:26:50;;;;;;;11.35;7.25;;;;;;;16.54;76.32;99278.94;5069338;28;20123;-81
2021/09/20 15:29:18;;;;;;;12.70;7.20;;;;;;;16.63;76.17;99294.09;5071277;28;20476;-81
2021/09/20 15:31:45;;;;;;;11.70;7.22;;;;;;;16.44;76.56;99275.88;5071791;28;20644;-81
2021/09/20 15:34:16;;;;;;;12.27;8.10;;;;;;;16.54;76.23;99289.91;5074194;28;20036;-81
2021/09/20 15:36:45;;;;;;;11.02;6.93;;;;;;;16.64;76.09;99289.44;5074573;28;20051;-82
2021/09/20 15:39:12;;;;;;;10.45;8.02;;;;;;;16.57;75.18;99285.91;5074480;28;20059;-81
2021/09/20 15:41:39;;;;;;;10.65;7.55;;;;;;;16.55;76.23;99286.13;5074458;28;20055;-82
2021/09/20 15:44:19;;;;;;;14.55;9.23;;;;;;;16.50;75.97;99287.84;5076324;28;20044;-83
2021/09/20 15:46:46;;;;;;;11.63;8.60;;;;;;;16.61;76.11;99300.88;5057406;28;20529;-83
2021/09/20 15:49:18;;;;;;;13.05;8.77;;;;;;;16.58;76.27;99304.88;5055891;28;20045;-83
2021/09/20 15:51:45;;;;;;;10.93;8.05;;;;;;;16.36;76.87;99311.78;5055369;28;20056;-83
2021/09/20 15:54:18;;;;;;;16.58;8.10;;;;;;;16.56;76.66;99304.28;5055348;28;20055;-83
2021/09/20 15:56:45;;;;;;;15.13;8.05;;;;;;;16.48;77.09;99307.25;5055115;28;20546;-83
2021/09/20 15:59:12;;;;;;;14.60;8.68;;;;;;;16.34;77.35;99317.47;5062314;28;20128;-83
2021/09/20 16:01:39;;;;;;;10.65;8.00;;;;;;;16.09;78.35;99303.66;5075189;28;20479;-83
2021/09/20 16:04:06;;;;;;;14.60;8.60;;;;;;;16.14;78.66;99324.94;5075101;28;20162;-83
2021/09/20 16:06:36;;;;;;;13.40;8.30;;;;;;;16.05;78.06;99316.97;5074889;28;20538;-82
2021/09/20 16:09:08;;;;;;;12.50;8.43;;;;;;;16.11;77.42;99320.75;5075040;28;20056;-82
2021/09/20 16:11:35;;;;;;;12.57;8.65;;;;;;;16.17;77.44;99314.41;5075111;28;20135;-83
2021/09/20 16:14:02;;;;;;;15.52;7.75;;;;;;;16.13;78.60;99326.84;5075281;28;20385;-83
2021/09/20 16:16:29;;;;;;;13.57;8.02;;;;;;;16.14;78.90;99328.56;5074100;28;20496;-83
2021/09/20 16:19:01;;;;;;;10.63;7.45;;;;;;;16.16;78.96;99326.41;5075074;28;20518;-82
2021/09/20 16:21:31;;;;;;;10.60;7.43;;;;;;;16.17;78.89;99332.75;5095363;28;20105;-83
2021/09/20 16:24:13;;;;;;;12.20;7.20;;;;;;;16.16;78.82;99331.91;5095344;28;20048;-82
2021/09/20 16:26:42;;;;;;;12.38;7.05;;;;;;;16.19;79.21;99338.88;5095142;28;20302;-83
2021/09/20 16:29:09;;;;;;;11.82;7.88;;;;;;;16.18;77.88;99343.50;5095474;28;20411;-83
2021/09/20 16:31:36;;;;;;;8.85;7.15;;;;;;;16.21;78.20;99348.56;5095340;28;20044;-83
2021/09/20 16:34:08;;;;;;;10.30;7.88;;;;;;;16.10;77.71;99351.97;5074387;28;20041;-82
2021/09/20 16:36:36;;;;;;;11.77;8.07;;;;;;;16.17;77.39;99350.06;5074491;28;20472;-83
2021/09/20 16:39:10;;;;;;;10.93;8.23;;;;;;;16.09;77.88;99364.84;5074924;28;20090;-83
2021/09/20 16:41:40;;;;;;;11.25;7.75;;;;;;;16.06;76.87;99361.69;5074694;28;20067;-82
2021/09/20 16:44:08;;;;;;;11.15;7.45;;;;;;;16.08;77.79;99356.84;5073862;28;20052;-83
2021/09/20 16:46:37;;;;;;;11.00;8.13;;;;;;;15.78;77.86;99357.34;5074206;28;20081;-82
2021/09/20 16:49:05;;;;;;;11.47;7.67;;;;;;;15.73;78.51;99368.06;5074755;28;20049;-83
2021/09/20 16:51:32;;;;;;;13.57;7.90;;;;;;;15.80;78.23;99373.56;5073434;28;20127;-82
2021/09/20 16:54:07;;;;;;;12.98;8.82;;;;;;;15.77;77.94;99377.53;5074424;28;20515;-83
2021/09/20 16:56:43;;;;;;;10.85;7.15;;;;;;;15.78;78.02;99390.25;5073865;28;20067;-82
2021/09/20 16:59:14;;;;;;;13.07;8.25;;;;;;;15.70;78.42;99376.72;5074653;28;20419;-82
2021/09/20 17:01:41;;;;;;;11.80;8.13;;;;;;;15.71;77.59;99381.13;5074650;28;20048;-83
2021/09/20 17:04:09;;;;;;;13.00;8.88;;;;;;;15.58;78.50;99387.47;5074009;28;20054;-82
2021/09/20 17:06:36;;;;;;;13.73;8.75;;;;;;;15.50;78.69;99384.97;5073697;28;20495;-82
2021/09/20 17:09:04;;;;;;;13.20;7.68;;;;;;;15.53;79.16;99395.50;5073827;28;20048;-83
2021/09/20 17:11:31;;;;;;;14.15;8.38;;;;;;;15.47;79.08;99396.34;5074487;28;20132;-82
2021/09/20 17:14:01;;;;;;;10.18;7.78;;;;;;;15.47;79.44;99401.81;5074171;28;20072;-82
2021/09/20 17:16:29;;;;;;;13.88;7.63;;;;;;;15.30;79.85;99396.75;5073736;28;20114;-82
2021/09/20 17:18:56;;;;;;;11.02;7.82;;;;;;;15.35;80.03;99415.31;5074252;28;20143;-82
2021/09/20 17:21:24;;;;;;;11.35;7.93;;;;;;;15.22;79.97;99395.06;5094149;28;20050;-82
2021/09/20 17:24:02;;;;;;;11.75;8.43;;;;;;;15.10;80.48;99391.28;5094245;28;20055;-82
2021/09/20 17:26:35;;;;;;;15.02;8.48;;;;;;;15.06;80.64;99400.13;5080118;28;20412;-82
2021/09/20 17:29:04;;;;;;;11.75;8.25;;;;;;;15.18;81.06;99414.88;5072286;28;20080;-82
2021/09/20 17:31:33;;;;;;;10.55;7.60;;;;;;;15.18;81.44;99415.72;5073798;28;20472;-82
2021/09/20 17:34:02;;;;;;;11.15;7.68;;;;;;;15.10;81.20;99420.53;5073663;28;20044;-82
2021/09/20 17:36:29;;;;;;;10.52;7.75;;;;;;;15.04;81.68;99419.50;5072845;28;20048;-83
2021/09/20 17:38:56;;;;;;;13.38;8.38;;;;;;;14.90;81.59;99412.28;5073650;28;20048;-82
2021/09/20 17:41:25;;;;;;;11.18;7.95;;;;;;;14.80;82.15;99432.69;5072182;28;20115;-82
2021/09/20 17:43:52;;;;;;;14.63;7.65;;;;;;;14.61;82.11;99417.06;5073325;28;20052;-83
2021/09/20 17:46:24;;;;;;;10.90;7.85;;;;;;;14.65;82.17;99438.31;5073328;28;20139;-83
2021/09/20 17:48:51;;;;;;;11.07;7.90;;;;;;;14.67;82.44;99435.38;5073412;28;20151;-82
2021/09/20 17:51:18;;;;;;;13.00;7.53;;;;;;;14.49;82.82;99416.75;5073141;28;20123;-82
2021/09/20 17:53:45;;;;;;;10.07;7.20;;;;;;;14.47;82.67;99422.44;5073256;28;20059;-82
2021/09/20 17:56:20;;;;;;;12.15;7.53;;;;;;;14.47;83.12;99430.66;5071969;28;20048;-82
2021/09/20 17:58:47;;;;;;;10.90;6.97;;;;;;;14.58;82.30;99447.53;5072200;28;20052;-82
2021/09/20 18:01:14;;;;;;;10.13;6.45;;;;;;;14.54;82.62;99443.50;5073104;28;20139;-83
2021/09/20 18:03:42;;;;;;;20.60;7.47;;;;;;;14.46;82.60;99439.06;5073129;28;20064;-83
2021/09/20 18:06:09;;;;;;;10.40;6.88;;;;;;;14.66;82.01;99467.38;5072638;28;20446;-83
2021/09/20 18:08:36;;;;;;;10.13;6.93;;;;;;;14.55;81.98;99443.31;5072605;28;20057;-83
2021/09/20 18:11:03;;;;;;;9.55;6.65;;;;;;;14.61;81.38;99455.34;5072859;28;20044;-84
2021/09/20 18:13:30;;;;;;;12.68;7.53;;;;;;;14.54;81.95;99455.28;5072631;28;20053;-83
2021/09/20 18:15:58;;;;;;;11.10;7.05;;;;;;;14.58;81.63;99463.94;5071511;28;20044;-83
2021/09/20 18:18:25;;;;;;;9.95;6.95;;;;;;;14.41;81.57;99453.34;5072681;28;20054;-83
2021/09/20 18:20:56;;;;;;;12.88;6.75;;;;;;;14.39;83.70;99460.91;5079820;28;20041;-83
2021/09/20 18:23:23;;;;;;;9.98;6.72;;;;;;;14.34;83.92;99469.69;5073056;28;20044;-83
2021/09/20 18:25:50;;;;;;;10.35;6.88;;;;;;;14.46;82.67;99461.78;5072727;28;20055;-83
2021/09/20 18:28:17;;;;;;;9.90;6.47;;;;;;;14.51;83.52;99486.66;5072790;28;20046;-83
2021/09/20 18:30:44;;;;;;;10.32;7.22;;;;;;;14.52;82.70;99487.47;5072282;28;20048;-82
2021/09/20 18:33:11;;;;;;;9.32;6.72;;;;;;;14.36;82.96;99472.22;5068725;28;20098;-83
2021/09/20 18:35:39;;;;;;;10.27;6.38;;;;;;;14.27;81.55;99470.72;5070358;28;20514;-83
2021/09/20 18:38:10;;;;;;;11.90;6.85;;;;;;;14.27;81.02;99487.13;5072510;28;20127;-82
2021/09/20 18:40:37;;;;;;;8.52;6.13;;;;;;;14.29;80.55;99487.78;5072138;28;20056;-83
2021/09/20 18:43:17;;;;;;;9.48;6.68;;;;;;;14.23;81.80;99496.78;5072427;28;20541;-83
2021/09/20 18:45:44;;;;;;;;;;;;;;;14.24;80.01;99499.31;5072602;28;20396;-82
2021/09/20 18:48:12;;;;;;;12.13;6.35;;;;;;;14.23;80.91;99500.38;5072464;28;19924;-82
2021/09/20 18:50:39;;;;;;;10.35;6.57;;;;;;;14.14;80.19;99496.09;5072121;28;20598;-82
2021/09/20 18:53:08;;;;;;;8.13;6.43;;;;;;;14.05;82.41;99489.94;5072082;28;20058;-82
2021/09/20 18:55:40;;;;;;;8.10;6.35;;;;;;;14.02;82.03;99490.34;5071818;28;20070;-82